sensor_id;sensor_type;location;lat;lon;timestamp;P1;durP1;ratioP1;P2;durP2;ratioP2
43435;SDS011;36399;51.444;-2.018;2022-12-08T00:01:07;38.47;;;19.80;;
43435;SDS011;36399;51.444;-2.018;2022-12-08T00:03:34;40.28;;;21.77;;
43435;SDS011;36399;51.444;-2.018;2022-12-08T00:06:01;38.30;;;20.55;;
43435;SDS011;36399;51.444;-2.018;2022-12-08T00:08:47;45.60;;;19.88;;
43435;SDS011;36399;51.444;-2.018;2022-12-08T00:11:32;45.22;;;21.67;;
43435;SDS011;36399;51.444;-2.018;2022-12-08T00:13:58;41.65;;;19.80;;
43435;SDS011;36399;51.444;-2.018;2022-12-08T00:16:24;44.88;;;21.63;;
43435;SDS011;36399;51.444;-2.018;2022-12-08T00:18:50;42.27;;;20.50;;
43435;SDS011;36399;51.444;-2.018;2022-12-08T00:21:16;53.63;;;23.43;;
43435;SDS011;36399;51.444;-2.018;2022-12-08T00:23:42;44.25;;;23.38;;
43435;SDS011;36399;51.444;-2.018;2022-12-08T00:26:08;43.03;;;23.40;;
43435;SDS011;36399;51.444;-2.018;2022-12-08T00:28:35;51.20;;;23.10;;
43435;SDS011;36399;51.444;-2.018;2022-12-08T00:31:10;48.60;;;25.75;;
43435;SDS011;36399;51.444;-2.018;2022-12-08T00:33:36;50.35;;;22.67;;
43435;SDS011;36399;51.444;-2.018;2022-12-08T00:36:06;47.87;;;23.07;;
43435;SDS011;36399;51.444;-2.018;2022-12-08T00:38:34;48.92;;;24.63;;
43435;SDS011;36399;51.444;-2.018;2022-12-08T00:41:01;55.33;;;26.35;;
43435;SDS011;36399;51.444;-2.018;2022-12-08T00:43:27;47.08;;;24.95;;
43435;SDS011;36399;51.444;-2.018;2022-12-08T00:45:53;50.60;;;24.37;;
43435;SDS011;36399;51.444;-2.018;2022-12-08T00:48:19;45.60;;;23.70;;
43435;SDS011;36399;51.444;-2.018;2022-12-08T00:50:45;50.37;;;25.63;;
43435;SDS011;36399;51.444;-2.018;2022-12-08T00:53:11;56.13;;;25.50;;
43435;SDS011;36399;51.444;-2.018;2022-12-08T00:55:37;50.67;;;26.50;;
43435;SDS011;36399;51.444;-2.018;2022-12-08T00:58:03;53.50;;;26.27;;
43435;SDS011;36399;51.444;-2.018;2022-12-08T01:00:29;53.63;;;26.67;;
43435;SDS011;36399;51.444;-2.018;2022-12-08T01:02:54;53.53;;;25.17;;
43435;SDS011;36399;51.444;-2.018;2022-12-08T01:05:20;44.03;;;24.73;;
43435;SDS011;36399;51.444;-2.018;2022-12-08T01:07:46;70.68;;;30.20;;
43435;SDS011;36399;51.444;-2.018;2022-12-08T01:10:14;67.28;;;28.30;;
43435;SDS011;36399;51.444;-2.018;2022-12-08T01:12:40;63.90;;;30.23;;
43435;SDS011;36399;51.444;-2.018;2022-12-08T01:15:06;56.63;;;28.67;;
43435;SDS011;36399;51.444;-2.018;2022-12-08T01:17:33;53.70;;;26.25;;
43435;SDS011;36399;51.444;-2.018;2022-12-08T01:19:59;47.63;;;25.15;;
43435;SDS011;36399;51.444;-2.018;2022-12-08T01:22:26;46.47;;;25.73;;
43435;SDS011;36399;51.444;-2.018;2022-12-08T01:24:52;49.33;;;24.77;;
43435;SDS011;36399;51.444;-2.018;2022-12-08T01:27:18;52.47;;;23.37;;
43435;SDS011;36399;51.444;-2.018;2022-12-08T01:29:44;45.83;;;23.73;;
43435;SDS011;36399;51.444;-2.018;2022-12-08T01:32:10;55.73;;;25.40;;
43435;SDS011;36399;51.444;-2.018;2022-12-08T01:34:36;43.23;;;23.53;;
43435;SDS011;36399;51.444;-2.018;2022-12-08T01:37:02;45.03;;;22.73;;
43435;SDS011;36399;51.444;-2.018;2022-12-08T01:39:28;46.40;;;23.23;;
43435;SDS011;36399;51.444;-2.018;2022-12-08T01:41:55;53.75;;;23.48;;
43435;SDS011;36399;51.444;-2.018;2022-12-08T01:46:47;44.90;;;23.67;;
43435;SDS011;36399;51.444;-2.018;2022-12-08T01:54:27;48.55;;;22.63;;
43435;SDS011;36399;51.444;-2.018;2022-12-08T01:56:57;47.45;;;21.90;;
43435;SDS011;36399;51.444;-2.018;2022-12-08T01:59:27;36.88;;;20.80;;
43435;SDS011;36399;51.444;-2.018;2022-12-08T02:01:55;49.53;;;22.38;;
43435;SDS011;36399;51.444;-2.018;2022-12-08T02:04:22;50.45;;;22.50;;
43435;SDS011;36399;51.444;-2.018;2022-12-08T02:06:48;50.60;;;22.17;;
43435;SDS011;36399;51.444;-2.018;2022-12-08T02:09:16;48.85;;;22.35;;
43435;SDS011;36399;51.444;-2.018;2022-12-08T02:11:43;49.05;;;23.23;;
43435;SDS011;36399;51.444;-2.018;2022-12-08T02:14:09;56.47;;;22.53;;
43435;SDS011;36399;51.444;-2.018;2022-12-08T02:22:13;40.50;;;19.90;;
43435;SDS011;36399;51.444;-2.018;2022-12-08T02:27:40;46.70;;;21.30;;
43435;SDS011;36399;51.444;-2.018;2022-12-08T02:30:11;39.42;;;18.98;;
43435;SDS011;36399;51.444;-2.018;2022-12-08T02:38:25;35.10;;;19.13;;
43435;SDS011;36399;51.444;-2.018;2022-12-08T02:43:31;37.20;;;19.33;;
43435;SDS011;36399;51.444;-2.018;2022-12-08T02:46:07;39.33;;;19.00;;
43435;SDS011;36399;51.444;-2.018;2022-12-08T02:48:37;38.63;;;19.13;;
43435;SDS011;36399;51.444;-2.018;2022-12-08T02:51:04;37.78;;;19.38;;
43435;SDS011;36399;51.444;-2.018;2022-12-08T02:53:31;44.47;;;21.30;;
43435;SDS011;36399;51.444;-2.018;2022-12-08T02:56:13;33.60;;;16.35;;
43435;SDS011;36399;51.444;-2.018;2022-12-08T03:01:47;42.83;;;18.95;;
43435;SDS011;36399;51.444;-2.018;2022-12-08T03:06:58;51.95;;;24.85;;
43435;SDS011;36399;51.444;-2.018;2022-12-08T03:12:15;57.28;;;25.45;;
43435;SDS011;36399;51.444;-2.018;2022-12-08T03:14:46;67.93;;;26.63;;
43435;SDS011;36399;51.444;-2.018;2022-12-08T03:17:14;57.40;;;25.48;;
43435;SDS011;36399;51.444;-2.018;2022-12-08T03:19:44;53.13;;;25.25;;
43435;SDS011;36399;51.444;-2.018;2022-12-08T03:22:12;53.10;;;23.65;;
43435;SDS011;36399;51.444;-2.018;2022-12-08T03:24:44;45.33;;;22.88;;
43435;SDS011;36399;51.444;-2.018;2022-12-08T03:27:12;41.42;;;21.60;;
43435;SDS011;36399;51.444;-2.018;2022-12-08T03:29:44;46.22;;;21.15;;
43435;SDS011;36399;51.444;-2.018;2022-12-08T03:35:03;45.17;;;20.05;;
43435;SDS011;36399;51.444;-2.018;2022-12-08T03:37:33;43.65;;;20.95;;
43435;SDS011;36399;51.444;-2.018;2022-12-08T03:40:01;41.88;;;19.38;;
43435;SDS011;36399;51.444;-2.018;2022-12-08T03:42:29;50.00;;;19.98;;
43435;SDS011;36399;51.444;-2.018;2022-12-08T03:44:55;46.20;;;19.20;;
43435;SDS011;36399;51.444;-2.018;2022-12-08T03:47:21;38.13;;;19.77;;
43435;SDS011;36399;51.444;-2.018;2022-12-08T03:49:48;32.42;;;16.38;;
43435;SDS011;36399;51.444;-2.018;2022-12-08T03:52:14;38.07;;;18.60;;
43435;SDS011;36399;51.444;-2.018;2022-12-08T03:54:40;42.40;;;18.35;;
43435;SDS011;36399;51.444;-2.018;2022-12-08T03:57:06;41.30;;;19.33;;
43435;SDS011;36399;51.444;-2.018;2022-12-08T03:59:32;36.27;;;18.50;;
43435;SDS011;36399;51.444;-2.018;2022-12-08T04:01:58;41.30;;;19.50;;
43435;SDS011;36399;51.444;-2.018;2022-12-08T04:04:24;44.05;;;18.17;;
43435;SDS011;36399;51.444;-2.018;2022-12-08T04:06:50;37.55;;;16.92;;
43435;SDS011;36399;51.444;-2.018;2022-12-08T04:09:16;51.63;;;18.98;;
43435;SDS011;36399;51.444;-2.018;2022-12-08T04:11:42;42.70;;;17.50;;
43435;SDS011;36399;51.444;-2.018;2022-12-08T04:14:08;35.27;;;19.37;;
43435;SDS011;36399;51.444;-2.018;2022-12-08T04:16:34;37.73;;;18.13;;
43435;SDS011;36399;51.444;-2.018;2022-12-08T04:19:00;40.27;;;18.37;;
43435;SDS011;36399;51.444;-2.018;2022-12-08T04:21:26;39.30;;;17.67;;
43435;SDS011;36399;51.444;-2.018;2022-12-08T04:23:52;44.17;;;20.08;;
43435;SDS011;36399;51.444;-2.018;2022-12-08T04:26:18;39.95;;;18.20;;
43435;SDS011;36399;51.444;-2.018;2022-12-08T04:28:44;45.93;;;20.07;;
43435;SDS011;36399;51.444;-2.018;2022-12-08T04:31:10;42.80;;;19.67;;
43435;SDS011;36399;51.444;-2.018;2022-12-08T04:33:36;35.70;;;18.30;;
43435;SDS011;36399;51.444;-2.018;2022-12-08T04:36:03;42.15;;;17.88;;
43435;SDS011;36399;51.444;-2.018;2022-12-08T04:38:30;42.78;;;19.58;;
43435;SDS011;36399;51.444;-2.018;2022-12-08T04:40:57;33.88;;;18.65;;
43435;SDS011;36399;51.444;-2.018;2022-12-08T04:43:23;40.57;;;19.90;;
43435;SDS011;36399;51.444;-2.018;2022-12-08T04:45:48;43.93;;;19.07;;
43435;SDS011;36399;51.444;-2.018;2022-12-08T04:48:14;38.17;;;18.47;;
43435;SDS011;36399;51.444;-2.018;2022-12-08T04:50:41;37.67;;;17.53;;
43435;SDS011;36399;51.444;-2.018;2022-12-08T04:53:08;39.95;;;17.40;;
43435;SDS011;36399;51.444;-2.018;2022-12-08T04:55:37;35.50;;;17.25;;
43435;SDS011;36399;51.444;-2.018;2022-12-08T04:58:04;32.28;;;17.55;;
43435;SDS011;36399;51.444;-2.018;2022-12-08T05:00:30;34.77;;;17.43;;
43435;SDS011;36399;51.444;-2.018;2022-12-08T05:02:56;36.97;;;17.57;;
43435;SDS011;36399;51.444;-2.018;2022-12-08T05:05:22;32.27;;;15.80;;
43435;SDS011;36399;51.444;-2.018;2022-12-08T05:07:48;35.70;;;16.92;;
43435;SDS011;36399;51.444;-2.018;2022-12-08T05:10:14;35.37;;;16.23;;
43435;SDS011;36399;51.444;-2.018;2022-12-08T05:12:40;32.83;;;16.10;;
43435;SDS011;36399;51.444;-2.018;2022-12-08T05:15:06;40.23;;;17.17;;
43435;SDS011;36399;51.444;-2.018;2022-12-08T05:17:32;30.63;;;15.13;;
43435;SDS011;36399;51.444;-2.018;2022-12-08T05:19:58;32.47;;;15.90;;
43435;SDS011;36399;51.444;-2.018;2022-12-08T05:22:24;34.57;;;16.33;;
43435;SDS011;36399;51.444;-2.018;2022-12-08T05:24:50;33.77;;;15.57;;
43435;SDS011;36399;51.444;-2.018;2022-12-08T05:27:16;31.03;;;15.53;;
43435;SDS011;36399;51.444;-2.018;2022-12-08T05:29:42;33.73;;;13.97;;
43435;SDS011;36399;51.444;-2.018;2022-12-08T05:32:08;34.97;;;15.80;;
43435;SDS011;36399;51.444;-2.018;2022-12-08T05:34:34;31.87;;;15.90;;
43435;SDS011;36399;51.444;-2.018;2022-12-08T05:36:59;37.27;;;15.33;;
43435;SDS011;36399;51.444;-2.018;2022-12-08T05:39:25;29.67;;;14.60;;
43435;SDS011;36399;51.444;-2.018;2022-12-08T05:41:51;31.23;;;15.50;;
43435;SDS011;36399;51.444;-2.018;2022-12-08T05:44:17;35.37;;;17.27;;
43435;SDS011;36399;51.444;-2.018;2022-12-08T05:46:43;27.97;;;16.57;;
43435;SDS011;36399;51.444;-2.018;2022-12-08T05:49:09;35.20;;;16.52;;
43435;SDS011;36399;51.444;-2.018;2022-12-08T05:51:35;32.70;;;15.17;;
43435;SDS011;36399;51.444;-2.018;2022-12-08T05:54:01;32.97;;;15.80;;
43435;SDS011;36399;51.444;-2.018;2022-12-08T05:56:27;35.28;;;16.63;;
43435;SDS011;36399;51.444;-2.018;2022-12-08T05:58:53;28.27;;;15.43;;
43435;SDS011;36399;51.444;-2.018;2022-12-08T06:01:23;26.97;;;14.30;;
43435;SDS011;36399;51.444;-2.018;2022-12-08T06:03:52;30.25;;;16.10;;
43435;SDS011;36399;51.444;-2.018;2022-12-08T06:06:19;35.03;;;15.65;;
43435;SDS011;36399;51.444;-2.018;2022-12-08T06:08:45;35.97;;;17.25;;
43435;SDS011;36399;51.444;-2.018;2022-12-08T06:11:18;37.35;;;16.77;;
43435;SDS011;36399;51.444;-2.018;2022-12-08T06:13:46;31.75;;;15.25;;
43435;SDS011;36399;51.444;-2.018;2022-12-08T06:16:12;29.35;;;16.10;;
43435;SDS011;36399;51.444;-2.018;2022-12-08T06:18:38;38.75;;;15.93;;
43435;SDS011;36399;51.444;-2.018;2022-12-08T06:21:05;32.10;;;16.47;;
43435;SDS011;36399;51.444;-2.018;2022-12-08T06:23:32;31.42;;;16.48;;
43435;SDS011;36399;51.444;-2.018;2022-12-08T06:26:02;37.00;;;17.30;;
43435;SDS011;36399;51.444;-2.018;2022-12-08T06:28:30;33.55;;;15.52;;
43435;SDS011;36399;51.444;-2.018;2022-12-08T06:30:56;34.88;;;16.40;;
43435;SDS011;36399;51.444;-2.018;2022-12-08T06:33:22;35.10;;;16.05;;
43435;SDS011;36399;51.444;-2.018;2022-12-08T06:35:49;34.80;;;16.65;;
43435;SDS011;36399;51.444;-2.018;2022-12-08T06:38:15;31.13;;;16.47;;
43435;SDS011;36399;51.444;-2.018;2022-12-08T06:40:41;46.33;;;19.08;;
43435;SDS011;36399;51.444;-2.018;2022-12-08T06:43:07;36.63;;;17.87;;
43435;SDS011;36399;51.444;-2.018;2022-12-08T06:45:33;39.97;;;17.73;;
43435;SDS011;36399;51.444;-2.018;2022-12-08T06:48:00;37.60;;;16.52;;
43435;SDS011;36399;51.444;-2.018;2022-12-08T06:50:26;40.13;;;17.73;;
43435;SDS011;36399;51.444;-2.018;2022-12-08T06:52:53;30.27;;;16.35;;
43435;SDS011;36399;51.444;-2.018;2022-12-08T06:55:19;34.80;;;16.23;;
43435;SDS011;36399;51.444;-2.018;2022-12-08T06:57:45;40.47;;;17.50;;
43435;SDS011;36399;51.444;-2.018;2022-12-08T07:00:11;34.50;;;16.47;;
43435;SDS011;36399;51.444;-2.018;2022-12-08T07:02:37;34.83;;;17.92;;
43435;SDS011;36399;51.444;-2.018;2022-12-08T07:05:03;34.80;;;17.30;;
43435;SDS011;36399;51.444;-2.018;2022-12-08T07:07:29;44.15;;;17.25;;
43435;SDS011;36399;51.444;-2.018;2022-12-08T07:09:55;39.13;;;18.60;;
43435;SDS011;36399;51.444;-2.018;2022-12-08T07:12:21;39.10;;;18.50;;
43435;SDS011;36399;51.444;-2.018;2022-12-08T07:14:47;36.30;;;16.87;;
43435;SDS011;36399;51.444;-2.018;2022-12-08T07:17:13;41.60;;;18.73;;
43435;SDS011;36399;51.444;-2.018;2022-12-08T07:19:39;46.40;;;20.60;;
43435;SDS011;36399;51.444;-2.018;2022-12-08T07:22:05;45.20;;;21.10;;
43435;SDS011;36399;51.444;-2.018;2022-12-08T07:24:31;46.67;;;21.97;;
43435;SDS011;36399;51.444;-2.018;2022-12-08T07:26:57;41.40;;;19.90;;
43435;SDS011;36399;51.444;-2.018;2022-12-08T07:29:23;51.47;;;22.73;;
43435;SDS011;36399;51.444;-2.018;2022-12-08T07:31:49;53.67;;;21.57;;
43435;SDS011;36399;51.444;-2.018;2022-12-08T07:34:15;52.13;;;20.67;;
43435;SDS011;36399;51.444;-2.018;2022-12-08T07:36:41;46.97;;;21.37;;
43435;SDS011;36399;51.444;-2.018;2022-12-08T07:39:07;45.50;;;21.63;;
43435;SDS011;36399;51.444;-2.018;2022-12-08T07:41:33;42.92;;;18.90;;
43435;SDS011;36399;51.444;-2.018;2022-12-08T07:43:59;38.90;;;16.10;;
43435;SDS011;36399;51.444;-2.018;2022-12-08T07:46:25;44.35;;;19.10;;
43435;SDS011;36399;51.444;-2.018;2022-12-08T07:48:52;42.00;;;18.50;;
43435;SDS011;36399;51.444;-2.018;2022-12-08T07:51:19;39.17;;;18.40;;
43435;SDS011;36399;51.444;-2.018;2022-12-08T07:53:47;36.63;;;17.52;;
43435;SDS011;36399;51.444;-2.018;2022-12-08T07:56:14;40.78;;;18.20;;
43435;SDS011;36399;51.444;-2.018;2022-12-08T07:58:40;42.40;;;18.27;;
43435;SDS011;36399;51.444;-2.018;2022-12-08T08:01:18;39.70;;;17.63;;
43435;SDS011;36399;51.444;-2.018;2022-12-08T08:03:49;32.88;;;18.38;;
43435;SDS011;36399;51.444;-2.018;2022-12-08T08:06:15;39.88;;;16.83;;
43435;SDS011;36399;51.444;-2.018;2022-12-08T08:08:41;35.60;;;18.33;;
43435;SDS011;36399;51.444;-2.018;2022-12-08T08:11:07;45.37;;;19.10;;
43435;SDS011;36399;51.444;-2.018;2022-12-08T08:13:33;43.63;;;17.27;;
43435;SDS011;36399;51.444;-2.018;2022-12-08T08:16:06;36.88;;;18.27;;
43435;SDS011;36399;51.444;-2.018;2022-12-08T08:18:34;43.15;;;17.80;;
43435;SDS011;36399;51.444;-2.018;2022-12-08T08:21:02;41.63;;;18.17;;
43435;SDS011;36399;51.444;-2.018;2022-12-08T08:23:28;36.90;;;18.45;;
43435;SDS011;36399;51.444;-2.018;2022-12-08T08:25:57;43.70;;;20.50;;
43435;SDS011;36399;51.444;-2.018;2022-12-08T08:28:24;32.17;;;17.73;;
43435;SDS011;36399;51.444;-2.018;2022-12-08T08:30:50;36.33;;;16.50;;
43435;SDS011;36399;51.444;-2.018;2022-12-08T08:33:16;31.07;;;17.47;;
43435;SDS011;36399;51.444;-2.018;2022-12-08T08:35:42;42.80;;;18.27;;
43435;SDS011;36399;51.444;-2.018;2022-12-08T08:38:08;38.92;;;17.48;;
43435;SDS011;36399;51.444;-2.018;2022-12-08T08:40:34;41.00;;;17.60;;
43435;SDS011;36399;51.444;-2.018;2022-12-08T08:43:00;34.07;;;15.90;;
43435;SDS011;36399;51.444;-2.018;2022-12-08T08:45:29;32.65;;;16.55;;
43435;SDS011;36399;51.444;-2.018;2022-12-08T08:47:56;33.30;;;16.55;;
43435;SDS011;36399;51.444;-2.018;2022-12-08T08:50:22;32.63;;;17.17;;
43435;SDS011;36399;51.444;-2.018;2022-12-08T08:52:51;38.17;;;18.58;;
43435;SDS011;36399;51.444;-2.018;2022-12-08T08:55:17;33.95;;;17.15;;
43435;SDS011;36399;51.444;-2.018;2022-12-08T08:57:43;30.73;;;17.08;;
43435;SDS011;36399;51.444;-2.018;2022-12-08T09:00:10;38.38;;;20.73;;
43435;SDS011;36399;51.444;-2.018;2022-12-08T09:02:36;41.50;;;19.17;;
43435;SDS011;36399;51.444;-2.018;2022-12-08T09:05:03;38.85;;;18.73;;
43435;SDS011;36399;51.444;-2.018;2022-12-08T09:07:30;38.75;;;19.67;;
43435;SDS011;36399;51.444;-2.018;2022-12-08T09:09:56;39.88;;;20.17;;
43435;SDS011;36399;51.444;-2.018;2022-12-08T09:12:22;43.90;;;21.48;;
43435;SDS011;36399;51.444;-2.018;2022-12-08T09:14:48;36.67;;;17.87;;
43435;SDS011;36399;51.444;-2.018;2022-12-08T09:17:14;39.27;;;19.67;;
43435;SDS011;36399;51.444;-2.018;2022-12-08T09:19:40;45.10;;;21.60;;
43435;SDS011;36399;51.444;-2.018;2022-12-08T09:22:07;36.93;;;19.90;;
43435;SDS011;36399;51.444;-2.018;2022-12-08T09:24:33;42.37;;;22.27;;
43435;SDS011;36399;51.444;-2.018;2022-12-08T09:26:59;33.50;;;17.33;;
43435;SDS011;36399;51.444;-2.018;2022-12-08T09:29:25;31.43;;;16.07;;
43435;SDS011;36399;51.444;-2.018;2022-12-08T09:31:51;26.00;;;14.20;;
43435;SDS011;36399;51.444;-2.018;2022-12-08T09:34:19;25.23;;;12.47;;
43435;SDS011;36399;51.444;-2.018;2022-12-08T09:36:45;22.63;;;11.87;;
43435;SDS011;36399;51.444;-2.018;2022-12-08T09:39:11;28.17;;;13.10;;
43435;SDS011;36399;51.444;-2.018;2022-12-08T09:44:17;20.43;;;12.63;;
43435;SDS011;36399;51.444;-2.018;2022-12-08T09:46:51;20.43;;;10.53;;
43435;SDS011;36399;51.444;-2.018;2022-12-08T09:49:22;20.27;;;12.13;;
43435;SDS011;36399;51.444;-2.018;2022-12-08T09:51:57;19.73;;;11.67;;
43435;SDS011;36399;51.444;-2.018;2022-12-08T09:54:30;16.10;;;10.43;;
43435;SDS011;36399;51.444;-2.018;2022-12-08T09:57:00;21.93;;;11.87;;
43435;SDS011;36399;51.444;-2.018;2022-12-08T09:59:34;21.87;;;12.30;;
43435;SDS011;36399;51.444;-2.018;2022-12-08T10:02:00;22.27;;;12.00;;
43435;SDS011;36399;51.444;-2.018;2022-12-08T10:04:30;23.87;;;14.03;;
43435;SDS011;36399;51.444;-2.018;2022-12-08T10:17:49;26.73;;;14.13;;
43435;SDS011;36399;51.444;-2.018;2022-12-08T10:20:18;17.33;;;11.37;;
43435;SDS011;36399;51.444;-2.018;2022-12-08T10:22:47;21.07;;;12.00;;
43435;SDS011;36399;51.444;-2.018;2022-12-08T10:25:21;17.10;;;11.70;;
43435;SDS011;36399;51.444;-2.018;2022-12-08T10:27:54;17.77;;;12.13;;
43435;SDS011;36399;51.444;-2.018;2022-12-08T10:30:22;22.70;;;12.13;;
43435;SDS011;36399;51.444;-2.018;2022-12-08T10:32:49;21.47;;;12.77;;
43435;SDS011;36399;51.444;-2.018;2022-12-08T10:35:18;20.20;;;12.27;;
43435;SDS011;36399;51.444;-2.018;2022-12-08T10:40:26;11.90;;;7.30;;
43435;SDS011;36399;51.444;-2.018;2022-12-08T10:42:57;11.63;;;7.33;;
43435;SDS011;36399;51.444;-2.018;2022-12-08T10:45:25;9.87;;;6.83;;
43435;SDS011;36399;51.444;-2.018;2022-12-08T10:50:47;9.03;;;6.77;;
43435;SDS011;36399;51.444;-2.018;2022-12-08T10:53:24;7.57;;;4.95;;
43435;SDS011;36399;51.444;-2.018;2022-12-08T10:58:31;7.43;;;5.10;;
43435;SDS011;36399;51.444;-2.018;2022-12-08T11:08:49;9.48;;;5.10;;
43435;SDS011;36399;51.444;-2.018;2022-12-08T11:11:18;6.53;;;4.75;;
43435;SDS011;36399;51.444;-2.018;2022-12-08T11:13:46;8.77;;;5.38;;
43435;SDS011;36399;51.444;-2.018;2022-12-08T11:16:14;10.25;;;5.10;;
43435;SDS011;36399;51.444;-2.018;2022-12-08T11:18:46;8.88;;;4.07;;
43435;SDS011;36399;51.444;-2.018;2022-12-08T11:21:20;7.05;;;3.88;;
43435;SDS011;36399;51.444;-2.018;2022-12-08T11:24:03;8.90;;;4.43;;
43435;SDS011;36399;51.444;-2.018;2022-12-08T11:26:48;8.02;;;4.80;;
43435;SDS011;36399;51.444;-2.018;2022-12-08T11:29:16;9.65;;;5.30;;
43435;SDS011;36399;51.444;-2.018;2022-12-08T11:31:43;9.88;;;5.15;;
43435;SDS011;36399;51.444;-2.018;2022-12-08T11:34:18;10.93;;;6.00;;
43435;SDS011;36399;51.444;-2.018;2022-12-08T11:36:49;14.27;;;7.53;;
43435;SDS011;36399;51.444;-2.018;2022-12-08T11:39:17;18.40;;;8.25;;
43435;SDS011;36399;51.444;-2.018;2022-12-08T11:41:43;20.23;;;8.32;;
43435;SDS011;36399;51.444;-2.018;2022-12-08T11:46:57;13.30;;;7.13;;
43435;SDS011;36399;51.444;-2.018;2022-12-08T11:49:37;10.73;;;5.63;;
43435;SDS011;36399;51.444;-2.018;2022-12-08T11:58:01;7.32;;;4.22;;
43435;SDS011;36399;51.444;-2.018;2022-12-08T12:00:35;8.50;;;4.20;;
43435;SDS011;36399;51.444;-2.018;2022-12-08T12:03:04;6.47;;;4.53;;
43435;SDS011;36399;51.444;-2.018;2022-12-08T12:19:12;7.88;;;4.45;;
43435;SDS011;36399;51.444;-2.018;2022-12-08T12:21:42;8.85;;;4.65;;
43435;SDS011;36399;51.444;-2.018;2022-12-08T12:26:59;8.35;;;4.30;;
43435;SDS011;36399;51.444;-2.018;2022-12-08T12:29:31;10.30;;;4.25;;
43435;SDS011;36399;51.444;-2.018;2022-12-08T12:32:03;8.48;;;5.35;;
43435;SDS011;36399;51.444;-2.018;2022-12-08T12:37:09;7.17;;;3.97;;
43435;SDS011;36399;51.444;-2.018;2022-12-08T13:03:35;8.90;;;5.57;;
43435;SDS011;36399;51.444;-2.018;2022-12-08T13:06:03;10.80;;;5.67;;
43435;SDS011;36399;51.444;-2.018;2022-12-08T13:08:30;9.27;;;4.90;;
43435;SDS011;36399;51.444;-2.018;2022-12-08T13:11:00;7.10;;;4.47;;
43435;SDS011;36399;51.444;-2.018;2022-12-08T13:13:29;7.82;;;5.20;;
43435;SDS011;36399;51.444;-2.018;2022-12-08T13:18:38;5.73;;;3.37;;
43435;SDS011;36399;51.444;-2.018;2022-12-08T13:31:40;6.95;;;3.20;;
43435;SDS011;36399;51.444;-2.018;2022-12-08T13:36:46;8.83;;;3.07;;
43435;SDS011;36399;51.444;-2.018;2022-12-08T13:39:21;5.03;;;2.83;;
43435;SDS011;36399;51.444;-2.018;2022-12-08T13:41:59;5.77;;;3.43;;
43435;SDS011;36399;51.444;-2.018;2022-12-08T13:44:36;4.83;;;3.00;;
43435;SDS011;36399;51.444;-2.018;2022-12-08T13:47:06;5.43;;;3.03;;
43435;SDS011;36399;51.444;-2.018;2022-12-08T13:49:42;6.23;;;3.13;;
43435;SDS011;36399;51.444;-2.018;2022-12-08T13:52:17;5.73;;;2.47;;
43435;SDS011;36399;51.444;-2.018;2022-12-08T13:54:54;5.83;;;3.23;;
43435;SDS011;36399;51.444;-2.018;2022-12-08T13:57:28;4.73;;;2.53;;
43435;SDS011;36399;51.444;-2.018;2022-12-08T14:00:00;7.30;;;3.70;;
43435;SDS011;36399;51.444;-2.018;2022-12-08T14:02:32;5.97;;;3.10;;
43435;SDS011;36399;51.444;-2.018;2022-12-08T14:05:02;6.60;;;3.30;;
43435;SDS011;36399;51.444;-2.018;2022-12-08T14:07:30;6.87;;;2.67;;
43435;SDS011;36399;51.444;-2.018;2022-12-08T14:09:57;4.33;;;2.50;;
43435;SDS011;36399;51.444;-2.018;2022-12-08T14:12:25;7.23;;;3.63;;
43435;SDS011;36399;51.444;-2.018;2022-12-08T14:14:56;5.57;;;3.57;;
43435;SDS011;36399;51.444;-2.018;2022-12-08T14:17:24;6.03;;;2.70;;
43435;SDS011;36399;51.444;-2.018;2022-12-08T14:20:02;6.17;;;3.03;;
43435;SDS011;36399;51.444;-2.018;2022-12-08T14:22:34;7.47;;;3.43;;
43435;SDS011;36399;51.444;-2.018;2022-12-08T14:25:02;9.07;;;3.20;;
43435;SDS011;36399;51.444;-2.018;2022-12-08T14:27:33;9.70;;;3.57;;
43435;SDS011;36399;51.444;-2.018;2022-12-08T14:30:04;6.60;;;3.30;;
43435;SDS011;36399;51.444;-2.018;2022-12-08T14:32:32;6.20;;;3.50;;
43435;SDS011;36399;51.444;-2.018;2022-12-08T14:37:37;9.13;;;4.20;;
43435;SDS011;36399;51.444;-2.018;2022-12-08T14:45:33;6.00;;;3.03;;
43435;SDS011;36399;51.444;-2.018;2022-12-08T14:56:37;9.67;;;4.43;;
43435;SDS011;36399;51.444;-2.018;2022-12-08T14:59:26;9.07;;;3.87;;
43435;SDS011;36399;51.444;-2.018;2022-12-08T15:04:44;6.93;;;4.17;;
43435;SDS011;36399;51.444;-2.018;2022-12-08T15:07:13;10.00;;;5.47;;
43435;SDS011;36399;51.444;-2.018;2022-12-08T15:09:48;10.40;;;4.63;;
43435;SDS011;36399;51.444;-2.018;2022-12-08T15:20:05;11.57;;;5.10;;
43435;SDS011;36399;51.444;-2.018;2022-12-08T15:22:51;10.13;;;5.10;;
43435;SDS011;36399;51.444;-2.018;2022-12-08T15:25:19;11.10;;;6.80;;
43435;SDS011;36399;51.444;-2.018;2022-12-08T15:27:45;10.17;;;6.30;;
43435;SDS011;36399;51.444;-2.018;2022-12-08T15:30:11;11.20;;;6.27;;
43435;SDS011;36399;51.444;-2.018;2022-12-08T15:32:39;9.73;;;5.60;;
43435;SDS011;36399;51.444;-2.018;2022-12-08T15:35:05;9.90;;;5.20;;
43435;SDS011;36399;51.444;-2.018;2022-12-08T15:37:31;10.57;;;6.37;;
43435;SDS011;36399;51.444;-2.018;2022-12-08T15:39:57;25.77;;;10.40;;
43435;SDS011;36399;51.444;-2.018;2022-12-08T15:42:23;49.53;;;17.97;;
43435;SDS011;36399;51.444;-2.018;2022-12-08T15:44:49;25.97;;;10.30;;
43435;SDS011;36399;51.444;-2.018;2022-12-08T15:47:16;20.40;;;9.20;;
43435;SDS011;36399;51.444;-2.018;2022-12-08T15:49:44;25.50;;;10.83;;
43435;SDS011;36399;51.444;-2.018;2022-12-08T15:52:13;22.23;;;11.17;;
43435;SDS011;36399;51.444;-2.018;2022-12-08T15:54:40;20.80;;;9.67;;
43435;SDS011;36399;51.444;-2.018;2022-12-08T15:57:07;22.67;;;9.30;;
43435;SDS011;36399;51.444;-2.018;2022-12-08T15:59:43;22.03;;;10.10;;
43435;SDS011;36399;51.444;-2.018;2022-12-08T16:02:12;17.67;;;8.07;;
43435;SDS011;36399;51.444;-2.018;2022-12-08T16:04:39;22.50;;;8.67;;
43435;SDS011;36399;51.444;-2.018;2022-12-08T16:07:05;17.50;;;8.97;;
43435;SDS011;36399;51.444;-2.018;2022-12-08T16:09:40;17.07;;;8.10;;
43435;SDS011;36399;51.444;-2.018;2022-12-08T16:12:13;14.93;;;8.20;;
43435;SDS011;36399;51.444;-2.018;2022-12-08T16:14:59;13.37;;;7.27;;
43435;SDS011;36399;51.444;-2.018;2022-12-08T16:17:25;13.17;;;7.63;;
43435;SDS011;36399;51.444;-2.018;2022-12-08T16:19:52;13.77;;;7.17;;
43435;SDS011;36399;51.444;-2.018;2022-12-08T16:22:19;11.63;;;7.40;;
43435;SDS011;36399;51.444;-2.018;2022-12-08T16:24:49;13.07;;;6.90;;
43435;SDS011;36399;51.444;-2.018;2022-12-08T16:27:20;16.40;;;7.87;;
43435;SDS011;36399;51.444;-2.018;2022-12-08T16:29:55;17.73;;;7.50;;
43435;SDS011;36399;51.444;-2.018;2022-12-08T16:32:22;16.97;;;7.47;;
43435;SDS011;36399;51.444;-2.018;2022-12-08T16:34:49;11.93;;;6.80;;
43435;SDS011;36399;51.444;-2.018;2022-12-08T16:37:22;15.93;;;7.60;;
43435;SDS011;36399;51.444;-2.018;2022-12-08T16:39:51;16.50;;;6.77;;
43435;SDS011;36399;51.444;-2.018;2022-12-08T16:42:24;12.80;;;7.53;;
43435;SDS011;36399;51.444;-2.018;2022-12-08T16:45:18;16.07;;;9.00;;
43435;SDS011;36399;51.444;-2.018;2022-12-08T16:47:54;14.23;;;7.33;;
43435;SDS011;36399;51.444;-2.018;2022-12-08T16:52:50;9.63;;;6.40;;
43435;SDS011;36399;51.444;-2.018;2022-12-08T16:55:26;11.20;;;6.50;;
43435;SDS011;36399;51.444;-2.018;2022-12-08T16:57:52;11.13;;;5.43;;
43435;SDS011;36399;51.444;-2.018;2022-12-08T17:00:19;13.57;;;6.43;;
43435;SDS011;36399;51.444;-2.018;2022-12-08T17:02:47;9.43;;;5.83;;
43435;SDS011;36399;51.444;-2.018;2022-12-08T17:05:15;8.57;;;4.43;;